Time;durP1;ratioP1;P1;durP2;ratioP2;P2;SDS_P1;SDS_P2;PMS_P1;PMS_P2;Temp;Humidity;BMP_temperature;BMP_pressure;BME280_temperature;BME280_humidity;BME280_pressure;Samples;Min_cycle;Max_cycle;Signal;HPM_P1;HPM_P2
2022/12/05 07:17:28;;;;;;;14.10;9.05;;;;;;;4.52;77.75;100003.03;1087479;46;20039;-76
2022/12/05 07:18:29;;;;;;;14.30;9.20;;;;;;;4.56;78.06;100004.53;1086400;54;20090;-76
2022/12/05 07:19:33;;;;;;;14.05;9.38;;;;;;;4.56;77.86;100009.81;1086179;54;20041;-76
2022/12/05 07:20:35;;;;;;;13.25;8.75;;;;;;;4.65;77.88;100011.81;1087146;54;20038;-76
2022/12/05 07:21:39;;;;;;;14.98;9.80;;;;;;;4.73;77.91;100010.44;1087451;54;20031;-75
2022/12/05 07:22:40;;;;;;;15.68;9.02;;;;;;;4.76;77.75;100011.06;1087522;54;20026;-76
2022/12/05 07:23:47;;;;;;;16.50;10.82;;;;;;;4.60;78.09;100018.41;1087399;54;20046;-76
2022/12/05 07:24:53;;;;;;;18.73;11.40;;;;;;;4.53;78.07;100021.44;1087508;54;20046;-76
2022/12/05 07:25:56;;;;;;;15.73;11.18;;;;;;;4.71;78.15;100023.78;1087263;54;20038;-76
2022/12/05 07:27:00;;;;;;;17.17;10.60;;;;;;;4.80;77.79;100025.78;1087452;54;20089;-76
2022/12/05 07:28:02;;;;;;;17.20;10.77;;;;;;;4.86;77.74;100026.31;1087569;54;20038;-76
2022/12/05 07:29:07;;;;;;;25.45;14.93;;;;;;;4.78;77.81;100033.00;1087415;54;20035;-76
2022/12/05 07:30:12;;;;;;;51.65;37.25;;;;;;;4.71;77.95;100029.09;1087724;54;20034;-76
2022/12/05 07:31:19;;;;;;;55.25;36.20;;;;;;;4.82;77.83;100031.81;1087647;54;20046;-77
2022/12/05 07:32:21;;;;;;;38.70;25.65;;;;;;;4.87;77.42;100033.31;1089535;39;20656;-76
2022/12/05 07:33:28;;;;;;;34.28;23.15;;;;;;;4.92;77.25;100031.16;1091909;31;20651;-76
2022/12/05 07:34:32;;;;;;;33.47;20.77;;;;;;;4.93;77.48;100035.50;1087352;54;20034;-76
2022/12/05 07:35:34;;;;;;;27.48;17.98;;;;;;;4.96;77.30;100030.00;1087628;47;20050;-76
2022/12/05 07:36:38;;;;;;;22.58;15.50;;;;;;;4.98;77.21;100026.28;1087583;54;20035;-77
2022/12/05 07:37:40;;;;;;;24.60;17.15;;;;;;;4.93;77.27;100027.56;1087613;54;20034;-76
2022/12/05 07:38:45;;;;;;;36.60;24.23;;;;;;;4.91;77.56;100026.84;1087604;54;20038;-77
2022/12/05 07:39:47;;;;;;;101.43;60.28;;;;;;;4.90;77.51;100027.78;1087428;54;20034;-76
2022/12/05 07:40:51;;;;;;;67.50;40.35;;;;;;;4.96;77.48;100016.75;1087422;54;20034;-76
2022/12/05 07:41:53;;;;;;;58.67;34.97;;;;;;;4.96;77.29;100016.75;1087612;54;20065;-76
2022/12/05 07:42:57;;;;;;;51.72;31.70;;;;;;;5.01;77.24;100019.91;1087429;54;20061;-77
2022/12/05 07:43:59;;;;;;;42.97;26.23;;;;;;;4.91;77.41;100021.53;1087795;54;20038;-76
2022/12/05 07:45:03;;;;;;;34.97;23.05;;;;;;;4.81;77.73;100027.50;1087678;54;20053;-75
2022/12/05 07:46:07;;;;;;;30.98;19.20;;;;;;;4.73;77.76;100021.88;1087646;54;20057;-76
2022/12/05 07:47:12;;;;;;;24.90;15.73;;;;;;;4.72;78.14;100022.84;1087452;54;20216;-76
2022/12/05 07:48:13;;;;;;;19.70;13.48;;;;;;;4.69;77.95;100021.22;1087545;54;20684;-77
2022/12/05 07:49:20;;;;;;;20.88;13.23;;;;;;;4.64;78.37;100022.50;1087411;54;20038;-77
2022/12/05 07:50:22;;;;;;;19.92;13.25;;;;;;;4.76;78.17;100016.34;1087460;54;20057;-77
2022/12/05 07:51:26;;;;;;;19.42;11.98;;;;;;;4.89;77.84;100021.63;1087852;39;20524;-79
2022/12/05 07:52:30;;;;;;;18.15;11.32;;;;;;;4.96;77.25;100016.75;1087424;54;20042;-77
2022/12/05 07:53:32;;;;;;;19.25;12.05;;;;;;;4.88;77.40;100019.09;1087137;54;20038;-77
2022/12/05 07:54:36;;;;;;;17.58;11.43;;;;;;;4.93;77.65;100025.78;1087304;54;20030;-77
2022/12/05 07:55:38;;;;;;;16.73;11.07;;;;;;;4.97;77.56;100018.44;1087458;54;20058;-77
2022/12/05 07:56:42;;;;;;;18.73;10.93;;;;;;;5.03;77.12;100018.00;1087853;46;20035;-78
2022/12/05 07:57:44;;;;;;;17.42;11.57;;;;;;;4.85;77.95;100020.16;1087360;54;20030;-77
2022/12/05 07:58:50;;;;;;;17.20;11.25;;;;;;;4.77;78.16;100023.34;1087350;54;20057;-78
2022/12/05 07:59:51;;;;;;;18.40;12.32;;;;;;;4.76;78.44;100016.34;1088530;46;20042;-77
2022/12/05 08:00:56;;;;;;;18.42;12.05;;;;;;;4.66;78.46;100017.97;1087559;54;20034;-78
2022/12/05 08:01:58;;;;;;;18.35;12.50;;;;;;;4.61;78.71;100022.75;1087387;54;20306;-77
2022/12/05 08:03:04;;;;;;;16.42;10.93;;;;;;;4.72;78.34;100014.91;1089915;39;20673;-78
2022/12/05 08:04:05;;;;;;;18.10;11.65;;;;;;;4.75;78.33;100019.97;1087486;54;20035;-77
2022/12/05 08:05:12;;;;;;;19.95;12.68;;;;;;;4.58;78.46;100020.28;1087573;54;20034;-76
2022/12/05 08:06:20;;;;;;;18.10;12.32;;;;;;;4.61;78.72;100022.75;1087842;54;20102;-77
2022/12/05 08:07:21;;;;;;;17.17;11.57;;;;;;;4.59;78.98;100025.47;1088187;54;20031;-78
2022/12/05 08:08:27;;;;;;;18.80;12.55;;;;;;;4.57;78.78;100027.41;1088142;54;20035;-77
2022/12/05 08:09:31;;;;;;;17.42;11.63;;;;;;;4.75;78.29;100033.19;1092090;46;20031;-76
2022/12/05 08:10:33;;;;;;;16.42;11.07;;;;;;;4.78;78.00;100034.78;1088235;54;20054;-77
2022/12/05 08:11:38;;;;;;;17.15;11.77;;;;;;;4.83;77.96;100035.31;1088125;54;20038;-77
2022/12/05 08:12:42;;;;;;;19.20;12.23;;;;;;;4.92;77.74;100041.75;1090610;46;20037;-77
2022/12/05 08:13:44;;;;;;;16.45;11.07;;;;;;;5.00;77.58;100039.44;1087892;54;20030;-78
2022/12/05 08:14:49;;;;;;;15.48;10.05;;;;;;;5.03;77.44;100043.66;1088503;39;20518;-77
2022/12/05 08:15:53;;;;;;;16.83;10.45;;;;;;;5.06;77.20;100041.63;1087558;54;20042;-77
2022/12/05 08:16:54;;;;;;;16.48;10.48;;;;;;;5.04;77.51;100040.91;1087416;54;20065;-78
2022/12/05 08:17:59;;;;;;;16.08;10.40;;;;;;;5.05;77.46;100045.25;1087402;54;20019;-76
2022/12/05 08:19:05;;;;;;;15.73;10.13;;;;;;;5.09;77.30;100046.72;1087277;54;20934;-77
2022/12/05 08:20:10;;;;;;;14.50;10.50;;;;;;;5.09;77.19;100046.72;1086945;47;20042;-77
2022/12/05 08:21:17;;;;;;;13.45;9.43;;;;;;;5.09;77.37;100052.03;1087109;54;20042;-77
2022/12/05 08:22:19;;;;;;;14.68;9.93;;;;;;;5.09;77.23;100038.78;1087430;54;20035;-77
2022/12/05 08:23:23;;;;;;;15.27;10.35;;;;;;;5.13;77.03;100044.69;1087353;54;20045;-77
2022/12/05 08:24:27;;;;;;;14.48;9.02;;;;;;;5.15;77.08;100043.63;1087205;54;20031;-77
2022/12/05 08:25:31;;;;;;;13.55;9.05;;;;;;;5.15;76.86;100046.28;1087172;54;20053;-77
2022/12/05 08:26:34;;;;;;;15.27;10.07;;;;;;;5.17;76.83;100045.31;1087235;54;20081;-77
2022/12/05 08:27:38;;;;;;;15.77;9.95;;;;;;;5.10;76.91;100048.41;1087393;54;20026;-78
2022/12/05 08:28:41;;;;;;;14.68;10.20;;;;;;;5.15;77.13;100048.94;1087298;54;20042;-77
2022/12/05 08:29:45;;;;;;;14.48;9.90;;;;;;;5.18;76.69;100053.16;1087153;54;20042;-77
2022/12/05 08:30:47;;;;;;;125.20;41.47;;;;;;;5.05;77.00;100055.84;1087255;54;20038;-77
2022/12/05 08:31:53;;;;;;;105.28;35.35;;;;;;;5.08;77.04;100060.94;1089732;39;20516;-77
2022/12/05 08:32:57;;;;;;;106.93;35.58;;;;;;;5.10;77.29;100060.81;1090314;39;20712;-77
2022/12/05 08:33:59;;;;;;;91.20;29.20;;;;;;;5.09;77.27;100052.03;1087262;54;20054;-77
2022/12/05 08:35:04;;;;;;;48.38;20.50;;;;;;;4.80;77.91;100060.22;1087452;54;20057;-77
2022/12/05 08:36:11;;;;;;;44.20;19.92;;;;;;;4.75;77.92;100054.38;1087302;54;20030;-77
2022/12/05 08:37:16;;;;;;;38.38;17.38;;;;;;;4.78;78.25;100056.84;1087401;54;20098;-77
2022/12/05 08:38:20;;;;;;;32.17;15.30;;;;;;;4.96;77.65;100069.75;1088191;31;20666;-78
2022/12/05 08:39:25;;;;;;;28.17;14.38;;;;;;;5.01;77.46;100057.00;1087689;54;20049;-77
2022/12/05 08:40:30;;;;;;;34.38;16.23;;;;;;;5.03;77.41;100056.91;1087691;54;20058;-76
2022/12/05 08:41:33;;;;;;;94.80;30.60;;;;;;;4.92;77.46;100062.94;1087811;54;20046;-76
2022/12/05 08:42:37;;;;;;;42.75;18.52;;;;;;;4.75;77.98;100067.63;1088188;46;20038;-77
2022/12/05 08:43:39;;;;;;;32.17;16.33;;;;;;;4.64;78.31;100064.88;1087784;54;20034;-78
2022/12/05 08:44:43;;;;;;;35.38;17.48;;;;;;;4.69;78.36;100068.91;1087706;54;20030;-77
2022/12/05 08:45:49;;;;;;;31.50;16.35;;;;;;;4.87;78.03;100065.91;1087735;54;20112;-77
2022/12/05 08:46:53;;;;;;;31.05;16.35;;;;;;;4.94;77.51;100061.91;1087511;54;20061;-77
2022/12/05 08:47:57;;;;;;;27.13;16.58;;;;;;;4.77;77.98;100070.19;1087676;54;20651;-78
2022/12/05 08:48:59;;;;;;;81.15;33.00;;;;;;;4.81;78.09;100077.81;1088082;46;20046;-78
2022/12/05 08:50:03;;;;;;;81.88;32.60;;;;;;;5.00;77.56;100071.22;1087739;54;20179;-78
2022/12/05 08:51:09;;;;;;;65.03;28.15;;;;;;;5.10;77.04;100082.84;1087504;54;20038;-77
2022/12/05 08:52:13;;;;;;;54.22;24.92;;;;;;;5.13;76.97;100080.00;1087475;54;20038;-77
2022/12/05 08:53:18;;;;;;;51.15;23.02;;;;;;;5.20;76.94;100072.44;1087708;54;20057;-77
2022/12/05 08:54:20;;;;;;;42.08;19.88;;;;;;;5.14;76.84;100089.63;1087675;54;20054;-77
2022/12/05 08:55:24;;;;;;;31.98;17.13;;;;;;;5.04;77.33;100082.47;1087905;54;20033;-77
2022/12/05 08:56:26;;;;;;;29.08;15.98;;;;;;;5.06;77.39;100092.00;1087769;54;20058;-78
2022/12/05 08:57:30;;;;;;;24.90;14.60;;;;;;;5.17;77.17;100082.44;1087650;54;20026;-78
2022/12/05 08:58:32;;;;;;;23.80;14.02;;;;;;;5.25;76.78;100085.38;1087714;54;20716;-78
2022/12/05 08:59:36;;;;;;;22.45;13.00;;;;;;;5.22;76.91;100085.59;1087496;54;20030;-77
2022/12/05 09:00:41;;;;;;;20.60;12.95;;;;;;;5.15;77.09;100088.69;1087794;54;20022;-78
2022/12/05 09:01:45;;;;;;;19.58;12.52;;;;;;;5.07;77.44;100084.88;1091238;39;20690;-77
2022/12/05 09:02:52;;;;;;;20.30;12.18;;;;;;;5.20;76.95;100088.34;1087462;54;20061;-77
2022/12/05 09:03:53;;;;;;;17.00;11.05;;;;;;;5.25;76.88;100088.88;1087354;54;20073;-77
2022/12/05 09:04:57;;;;;;;17.35;11.57;;;;;;;5.17;77.02;100093.03;1087609;54;20031;-77
2022/12/05 09:06:10;;;;;;;17.48;11.93;;;;;;;5.03;77.31;100089.53;1087521;54;20045;-78
2022/12/05 09:07:14;;;;;;;17.10;11.15;;;;;;;5.10;77.67;100089.97;1087592;54;20038;-77
2022/12/05 09:08:16;;;;;;;19.48;12.93;;;;;;;4.95;78.04;100089.25;1087710;54;20057;-78
2022/12/05 09:09:20;;;;;;;19.52;12.10;;;;;;;4.88;78.49;100088.81;1087625;54;20060;-77
2022/12/05 09:10:22;;;;;;;19.50;13.13;;;;;;;4.91;78.63;100098.38;1087573;54;20030;-77
2022/12/05 09:11:28;;;;;;;20.50;11.98;;;;;;;4.94;78.52;100100.78;1087608;54;20042;-77
2022/12/05 09:12:32;;;;;;;17.20;11.52;;;;;;;4.97;78.33;100093.47;1087777;54;20060;-77
2022/12/05 09:13:34;;;;;;;18.45;12.20;;;;;;;5.13;78.05;100093.25;1087053;54;20034;-79
2022/12/05 09:14:38;;;;;;;19.38;12.25;;;;;;;5.20;77.83;100098.09;1086750;54;20030;-76
2022/12/05 09:15:39;;;;;;;17.02;10.52;;;;;;;5.08;78.12;100100.69;1087072;54;20802;-78
2022/12/05 09:16:46;;;;;;;17.17;11.35;;;;;;;5.10;78.45;100098.75;1087122;54;20027;-78
2022/12/05 09:17:50;;;;;;;17.77;11.95;;;;;;;5.17;78.33;100099.16;1087645;54;20035;-77
2022/12/05 09:18:52;;;;;;;17.65;11.77;;;;;;;5.23;77.84;100108.50;1087666;54;20050;-77
2022/12/05 09:19:56;;;;;;;17.30;11.68;;;;;;;5.24;77.84;100104.88;1087725;54;20053;-77
2022/12/05 09:20:57;;;;;;;21.42;12.25;;;;;;;5.21;77.86;100099.78;1088220;46;20027;-78
2022/12/05 09:22:06;;;;;;;16.65;11.73;;;;;;;5.22;78.38;100101.50;1087096;54;20039;-77
2022/12/05 09:23:07;;;;;;;15.95;10.45;;;;;;;5.28;78.19;100101.06;1087016;54;20042;-78
2022/12/05 09:24:13;;;;;;;18.27;11.27;;;;;;;5.32;78.11;100102.53;1086995;54;20038;-77
2022/12/05 09:25:15;;;;;;;15.73;11.18;;;;;;;5.39;77.85;100101.13;1087076;54;20037;-77
2022/12/05 09:26:22;;;;;;;14.18;9.57;;;;;;;5.45;77.92;100100.72;1087214;54;20069;-77
2022/12/05 09:27:26;;;;;;;15.63;10.48;;;;;;;5.51;77.51;100106.50;1086992;46;20072;-76
2022/12/05 09:28:27;;;;;;;17.00;11.38;;;;;;;5.36;77.93;100101.38;1086375;54;20042;-75
2022/12/05 09:29:33;;;;;;;18.88;12.35;;;;;;;5.31;78.16;100106.13;1086374;54;20041;-77
2022/12/05 09:30:34;;;;;;;17.02;11.77;;;;;;;5.29;78.78;100118.69;1087059;54;20038;-77
2022/12/05 09:31:41;;;;;;;17.58;12.38;;;;;;;5.20;78.70;100114.00;1087181;54;20030;-77
2022/12/05 09:32:45;;;;;;;20.20;12.55;;;;;;;5.15;79.19;100106.38;1086250;47;20574;-77
2022/12/05 09:33:48;;;;;;;17.02;11.70;;;;;;;5.06;79.60;100107.88;1087254;54;20041;-76
2022/12/05 09:34:53;;;;;;;20.73;13.40;;;;;;;5.00;79.85;100119.75;1086162;54;20613;-76
2022/12/05 09:35:54;;;;;;;18.75;12.30;;;;;;;5.03;79.92;100113.38;1086322;54;20090;-77
2022/12/05 09:36:59;;;;;;;19.85;13.13;;;;;;;4.91;80.51;100116.91;1086086;54;20045;-76
2022/12/05 09:38:05;;;;;;;18.02;12.63;;;;;;;4.95;80.80;100126.31;1085601;54;20042;-77
2022/12/05 09:39:09;;;;;;;20.10;12.52;;;;;;;4.97;80.57;100114.66;1086601;54;20081;-77
2022/12/05 09:40:15;;;;;;;18.63;12.48;;;;;;;4.97;80.72;100114.66;1086262;54;20603;-76
2022/12/05 09:43:03;;;;;;;19.27;12.27;;;;;;;4.89;80.90;100126.75;1085899;54;20042;-75
2022/12/05 09:44:11;;;;;;;19.85;13.07;;;;;;;4.82;81.44;100124.53;1087135;54;20061;-77
2022/12/05 09:45:27;;;;;;;18.35;12.65;;;;;;;4.94;81.23;100124.63;1086926;54;20049;-76
2022/12/05 09:46:44;;;;;;;20.85;13.90;;;;;;;4.89;81.94;100132.91;1086734;54;20056;-75
2022/12/05 09:47:56;;;;;;;18.77;12.93;;;;;;;5.04;81.40;100125.69;1086554;54;20069;-76
2022/12/05 09:49:03;;;;;;;19.88;12.90;;;;;;;5.16;80.72;100123.97;1087181;39;20975;-76
2022/12/05 09:50:16;;;;;;;19.30;12.15;;;;;;;5.10;80.81;100125.25;1086884;54;20042;-76
2022/12/05 09:51:20;;;;;;;19.65;13.43;;;;;;;5.13;80.91;100126.84;1086630;46;20035;-76
2022/12/05 09:52:26;;;;;;;19.17;12.93;;;;;;;5.09;81.30;100128.00;1086931;46;20034;-77
2022/12/05 09:53:35;;;;;;;17.15;11.85;;;;;;;5.15;81.33;100125.78;1086342;54;20045;-76
2022/12/05 09:54:37;;;;;;;19.13;12.65;;;;;;;5.08;81.60;100121.88;1086836;54;20049;-78
2022/12/05 09:55:50;;;;;;;19.23;11.73;;;;;;;5.20;81.31;100119.28;1086749;54;20046;-77
2022/12/05 09:56:52;;;;;;;17.30;12.32;;;;;;;5.15;81.22;100120.50;1086012;54;20042;-76
2022/12/05 09:57:59;;;;;;;19.60;11.90;;;;;;;5.12;81.34;100119.88;1086351;54;20064;-75
2022/12/05 09:59:04;;;;;;;21.25;13.18;;;;;;;5.09;81.39;100123.59;1087145;54;20069;-78
2022/12/05 10:00:10;;;;;;;18.27;12.52;;;;;;;5.03;81.62;100124.00;1086931;54;20050;-77
2022/12/05 10:01:34;;;;;;;21.55;13.43;;;;;;;4.88;82.42;100125.91;1087033;54;20034;-76
2022/12/05 10:02:45;;;;;;;19.05;12.35;;;;;;;4.99;82.09;100120.72;1086387;54;20090;-78
2022/12/05 10:04:03;;;;;;;21.70;13.43;;;;;;;4.99;81.85;100122.53;1085873;54;20119;-76
2022/12/05 10:05:13;;;;;;;19.13;12.65;;;;;;;4.91;82.33;100130.16;1085656;54;20038;-75
2022/12/05 10:06:21;;;;;;;18.33;12.35;;;;;;;4.98;82.30;100120.81;1084246;54;20111;-76
2022/12/05 10:07:36;;;;;;;18.40;12.82;;;;;;;4.99;81.95;100120.72;1084971;54;20587;-76
2022/12/05 10:09:12;;;;;;;19.30;12.30;;;;;;;5.03;82.48;100126.63;1086335;31;20580;-77
2022/12/05 10:10:41;;;;;;;18.63;12.00;;;;;;;5.01;82.65;100120.59;1086934;54;20038;-77
2022/12/05 10:11:51;;;;;;;19.50;12.27;;;;;;;4.91;83.04;100124.88;1086311;54;20623;-77
2022/12/05 10:13:09;;;;;;;20.67;13.07;;;;;;;5.07;82.99;100114.88;1086257;54;20042;-77
2022/12/05 10:14:26;;;;;;;20.73;13.93;;;;;;;5.04;82.70;100117.75;1085955;46;20058;-76
2022/12/05 10:15:35;;;;;;;22.33;13.10;;;;;;;5.02;83.04;100118.81;1086810;39;20413;-77
2022/12/05 10:16:48;;;;;;;22.38;13.75;;;;;;;4.93;83.83;100121.16;1086602;46;20039;-76
2022/12/05 10:18:16;;;;;;;23.15;13.77;;;;;;;4.99;83.50;100122.53;1085509;54;20042;-77
2022/12/05 10:19:35;;;;;;;21.02;13.05;;;;;;;4.94;83.60;100124.63;1087578;54;20034;-78
2022/12/05 10:21:11;;;;;;;18.42;12.45;;;;;;;5.01;83.59;100133.84;1092538;39;20578;-78
2022/12/05 10:22:30;;;;;;;18.75;12.15;;;;;;;4.96;83.69;100126.22;1086846;54;21142;-78
2022/12/05 10:23:40;;;;;;;21.10;13.60;;;;;;;4.91;83.86;100130.16;1087356;54;20042;-78
2022/12/05 10:24:49;;;;;;;16.50;9.52;;;;;;;4.90;84.27;100129.31;1086680;54;20069;-78
2022/12/05 10:25:56;;;;;;;19.30;12.50;;;;;;;4.91;84.60;100128.34;1086873;54;20030;-76
2022/12/05 10:27:04;;;;;;;26.15;13.68;;;;;;;4.88;84.72;100125.91;1086655;54;20031;-77
2022/12/05 10:28:14;;;;;;;18.98;12.50;;;;;;;5.03;84.06;100118.69;1087043;54;20042;-78
2022/12/05 10:29:27;;;;;;;19.70;11.82;;;;;;;5.19;83.50;100117.63;1086060;54;20057;-77
2022/12/05 10:30:35;;;;;;;17.45;12.18;;;;;;;4.98;84.13;100121.66;1085930;54;20064;-77
2022/12/05 10:31:42;;;;;;;20.33;13.45;;;;;;;5.00;84.32;100130.34;1085833;54;20038;-77
2022/12/05 10:32:51;;;;;;;21.48;12.65;;;;;;;5.09;84.07;100123.59;1085538;54;20043;-76
2022/12/05 10:34:03;;;;;;;19.27;12.88;;;;;;;5.09;83.95;100120.94;1085537;54;20038;-76
2022/12/05 10:35:18;;;;;;;18.52;11.30;;;;;;;5.25;83.54;100119.84;1085277;54;20042;-76
2022/12/05 10:36:22;;;;;;;16.23;10.65;;;;;;;5.28;82.90;100116.97;1085438;54;20142;-77
2022/12/05 10:37:23;;;;;;;24.42;13.90;;;;;;;5.14;83.73;100115.31;1087677;39;20607;-78
2022/12/05 10:38:30;;;;;;;18.52;12.68;;;;;;;5.13;84.13;100121.56;1087049;54;20034;-76
2022/12/05 10:39:35;;;;;;;18.77;12.82;;;;;;;5.10;84.15;100122.59;1088142;31;20480;-77
2022/12/05 10:40:46;;;;;;;20.30;13.43;;;;;;;4.97;84.88;100129.72;1085880;54;20653;-76
2022/12/05 10:41:47;;;;;;;20.67;14.25;;;;;;;5.04;84.64;100131.00;1085872;54;20046;-77
2022/12/05 10:42:52;;;;;;;18.02;12.63;;;;;;;4.97;84.67;100135.84;1086006;54;20037;-76
2022/12/05 10:44:00;;;;;;;19.98;13.35;;;;;;;4.93;85.29;100129.09;1085866;54;20050;-77
2022/12/05 10:45:04;;;;;;;21.20;13.05;;;;;;;5.00;85.11;100133.00;1085469;54;20058;-75
2022/12/05 10:46:10;;;;;;;20.45;13.27;;;;;;;5.04;84.81;100138.94;1086128;54;20045;-76
2022/12/05 10:47:14;;;;;;;20.30;12.95;;;;;;;5.14;84.36;100128.56;1086080;54;20114;-75
2022/12/05 10:48:20;;;;;;;17.85;12.07;;;;;;;5.29;84.01;100135.41;1085841;46;20054;-76
2022/12/05 10:49:25;;;;;;;20.92;13.63;;;;;;;5.11;84.49;100132.25;1085842;54;20073;-77
2022/12/05 10:50:32;;;;;;;20.33;13.27;;;;;;;5.09;85.04;100128.88;1087056;46;20050;-77
2022/12/05 10:51:36;;;;;;;20.00;14.05;;;;;;;5.09;85.10;100126.22;1085595;54;20606;-77
2022/12/05 10:52:38;;;;;;;21.70;12.95;;;;;;;5.04;85.05;100125.69;1085797;54;20065;-77
2022/12/05 10:53:44;;;;;;;22.45;13.52;;;;;;;5.24;84.73;100123.44;1086667;39;20661;-77
2022/12/05 10:54:53;;;;;;;22.15;12.80;;;;;;;5.24;84.54;100120.78;1086104;54;20042;-76
2022/12/05 10:55:59;;;;;;;19.23;12.93;;;;;;;5.25;84.37;100118.03;1085477;54;20061;-77
2022/12/05 10:57:21;;;;;;;20.00;13.60;;;;;;;5.28;84.12;100116.97;1085628;54;20054;-76
2022/12/05 10:58:28;;;;;;;19.40;12.60;;;;;;;5.32;84.17;100113.13;1084992;54;20054;-77
2022/12/05 10:59:47;;;;;;;19.23;13.35;;;;;;;5.23;84.76;100111.13;1086089;46;20039;-77
2022/12/05 11:00:54;;;;;;;24.45;13.43;;;;;;;5.25;84.77;100122.50;1084897;54;20562;-76
2022/12/05 11:02:00;;;;;;;19.73;12.82;;;;;;;5.34;84.36;100115.69;1085261;54;20060;-76
2022/12/05 11:03:06;;;;;;;22.65;13.93;;;;;;;5.43;84.05;100115.03;1085292;54;20038;-77
2022/12/05 11:04:19;;;;;;;17.45;11.35;;;;;;;5.56;83.60;100112.34;1085268;54;20034;-77
2022/12/05 11:05:30;;;;;;;16.65;10.57;;;;;;;5.68;82.86;100113.25;1085476;54;20065;-79
2022/12/05 11:06:35;;;;;;;17.08;11.05;;;;;;;5.63;83.10;100113.59;1085542;54;20133;-77
2022/12/05 11:07:48;;;;;;;21.05;11.73;;;;;;;5.50;83.34;100118.94;1085487;47;20103;-77
2022/12/05 11:08:52;;;;;;;20.92;13.23;;;;;;;5.47;83.66;100111.19;1086300;46;20034;-77
2022/12/05 11:09:56;;;;;;;19.05;13.10;;;;;;;5.52;83.48;100113.50;1085361;54;20038;-76
2022/12/05 11:11:08;;;;;;;21.85;12.55;;;;;;;5.51;82.99;100109.16;1085460;46;20644;-76
2022/12/05 11:12:19;;;;;;;17.38;12.40;;;;;;;5.41;83.54;100101.88;1085738;54;20102;-76
2022/12/05 11:13:27;;;;;;;20.02;13.68;;;;;;;5.38;83.95;100106.56;1085508;54;20043;-76
2022/12/05 11:14:28;;;;;;;25.20;13.70;;;;;;;5.47;83.77;100108.53;1085388;54;20081;-76
2022/12/05 11:15:33;;;;;;;21.17;13.57;;;;;;;5.50;83.62;100110.97;1084854;54;20045;-76
2022/12/05 11:16:37;;;;;;;24.45;13.98;;;;;;;5.52;83.59;100111.72;1086024;39;20772;-76
2022/12/05 11:17:42;;;;;;;20.83;12.95;;;;;;;5.40;83.62;100113.44;1085407;54;20567;-76
2022/12/05 11:18:47;;;;;;;19.73;13.55;;;;;;;5.49;83.43;100111.94;1085095;54;20591;-76
2022/12/05 11:19:51;;;;;;;18.90;12.75;;;;;;;5.50;83.51;100112.78;1085355;54;20041;-77
2022/12/05 11:20:55;;;;;;;20.20;13.48;;;;;;;5.58;82.81;100113.06;1085518;54;20061;-77
2022/12/05 11:21:58;;;;;;;19.98;12.30;;;;;;;5.74;82.44;100113.66;1085339;54;20113;-76
2022/12/05 11:23:19;;;;;;;20.20;13.85;;;;;;;5.52;82.30;100111.72;1085335;39;20518;-77
2022/12/05 11:24:24;;;;;;;;;;;;;;;5.52;82.58;100125.00;1085421;54;20145;-77
2022/12/05 11:25:32;;;;;;;38.80;19.23;;;;;;;5.44;83.33;100114.91;1085281;54;20077;-77
2022/12/05 11:26:41;;;;;;;36.45;17.77;;;;;;;5.61;82.63;100116.38;1085804;54;20042;-77
2022/12/05 11:27:45;;;;;;;24.10;15.85;;;;;;;5.76;82.27;100109.06;1085991;54;20114;-77
2022/12/05 11:28:49;;;;;;;24.90;15.00;;;;;;;5.86;81.74;100108.41;1086047;54;20053;-76
2022/12/05 11:30:00;;;;;;;66.38;26.80;;;;;;;5.84;81.43;100113.00;1085956;54;20038;-78
2022/12/05 11:31:07;;;;;;;78.22;27.83;;;;;;;5.66;82.01;100109.88;1086397;47;20026;-77
2022/12/05 11:32:20;;;;;;;74.80;26.83;;;;;;;5.59;81.82;100114.75;1086271;54;20038;-77
2022/12/05 11:33:23;;;;;;;48.30;19.42;;;;;;;5.61;82.09;100116.38;1085885;54;20050;-77
2022/12/05 11:34:33;;;;;;;28.05;16.85;;;;;;;5.53;82.13;100109.91;1086049;54;20102;-77
2022/12/05 11:35:37;;;;;;;24.20;14.27;;;;;;;5.43;82.56;100113.22;1086321;54;20042;-77
2022/12/05 11:36:45;;;;;;;24.17;14.68;;;;;;;5.43;82.53;100110.56;1086469;54;20069;-77
2022/12/05 11:37:53;;;;;;;24.55;14.48;;;;;;;5.43;83.01;100110.56;1086105;54;20041;-78
2022/12/05 11:38:59;;;;;;;21.67;13.63;;;;;;;5.61;82.53;100107.53;1086951;46;20054;-77
2022/12/05 11:40:04;;;;;;;21.90;13.57;;;;;;;5.60;82.48;100105.84;1088317;46;20035;-78
2022/12/05 11:41:26;;;;;;;18.98;12.73;;;;;;;5.49;82.39;100113.72;1086363;54;20068;-76
2022/12/05 11:42:45;;;;;;;20.50;12.80;;;;;;;5.53;82.71;100110.75;1087092;54;20046;-78
2022/12/05 11:44:04;;;;;;;18.67;11.95;;;;;;;5.63;81.90;100100.34;1087115;54;20932;-77
2022/12/05 11:45:22;;;;;;;17.65;12.00;;;;;;;5.69;81.51;100104.34;1087841;54;20102;-77
2022/12/05 11:46:36;;;;;;;19.10;13.00;;;;;;;5.68;81.70;100105.31;1087944;54;20061;-78
2022/12/05 11:48:05;;;;;;;19.40;12.20;;;;;;;5.57;81.33;100098.13;1088327;46;20038;-78
2022/12/05 11:49:25;;;;;;;20.27;12.38;;;;;;;5.54;81.85;100106.31;1087913;54;20038;-77
2022/12/05 11:50:42;;;;;;;21.33;13.85;;;;;;;5.55;81.98;100106.19;1088338;46;20035;-77
2022/12/05 11:51:53;;;;;;;20.35;13.00;;;;;;;5.50;82.01;100099.50;1087476;54;20552;-76
2022/12/05 11:53:09;;;;;;;19.95;13.50;;;;;;;5.51;82.14;100106.50;1087124;54;20081;-76
2022/12/05 11:54:42;;;;;;;22.67;14.10;;;;;;;5.43;82.22;100102.63;1086252;54;20045;-76
2022/12/05 11:55:56;;;;;;;19.33;12.80;;;;;;;5.44;82.64;100106.97;1085151;47;20061;-76
2022/12/05 11:57:06;;;;;;;19.73;13.05;;;;;;;5.54;82.50;100106.31;1085471;54;20038;-76
2022/12/05 11:58:44;;;;;;;18.35;12.75;;;;;;;5.42;82.59;100113.34;1085443;54;20049;-76
2022/12/05 12:00:09;;;;;;;19.33;13.30;;;;;;;5.44;82.01;100101.66;1085649;54;20046;-76
2022/12/05 12:01:22;;;;;;;19.92;13.48;;;;;;;5.59;81.86;100096.19;1087348;54;20118;-77
2022/12/05 12:02:39;;;;;;;19.00;12.50;;;;;;;5.72;81.74;100102.31;1087398;54;20097;-76
2022/12/05 12:04:09;;;;;;;18.02;12.60;;;;;;;5.83;81.24;100095.38;1087488;54;20070;-76
2022/12/05 12:05:20;;;;;;;16.65;11.13;;;;;;;5.89;80.88;100089.59;1090099;46;20081;-77
2022/12/05 12:06:30;;;;;;;18.42;11.63;;;;;;;5.89;80.34;100092.25;1087336;54;20334;-76
2022/12/05 12:07:44;;;;;;;;;;;;;;;5.81;79.83;100097.28;1087616;54;20069;-77
2022/12/05 12:09:01;;;;;;;18.50;11.40;;;;;;;5.73;80.49;100089.88;1089713;46;19938;-77
2022/12/05 12:10:19;;;;;;;17.42;11.60;;;;;;;5.73;80.19;100090.75;1087785;46;20034;-77
2022/12/05 12:11:31;;;;;;;19.75;12.40;;;;;;;5.72;80.08;100094.34;1087453;54;20047;-77
2022/12/05 12:12:44;;;;;;;18.25;11.98;;;;;;;5.79;80.21;100089.44;1088664;39;20265;-79
2022/12/05 12:14:03;;;;;;;18.08;12.18;;;;;;;5.85;79.51;100093.47;1087349;54;20080;-78
2022/12/05 12:15:34;;;;;;;17.73;11.27;;;;;;;5.98;79.37;100082.78;1087940;46;20042;-77
2022/12/05 12:16:44;;;;;;;18.83;12.05;;;;;;;6.07;79.15;100082.13;1087285;54;20089;-77
2022/12/05 12:17:58;;;;;;;16.60;11.07;;;;;;;6.11;79.04;100080.09;1087111;54;20087;-77
2022/12/05 12:19:18;;;;;;;15.10;10.63;;;;;;;6.17;78.89;100084.91;1086641;54;20046;-77
2022/12/05 12:20:34;;;;;;;15.57;10.60;;;;;;;6.20;79.05;100066.13;1086069;54;20042;-77
2022/12/05 12:21:53;;;;;;;15.18;10.00;;;;;;;6.27;78.88;100077.13;1085718;54;20042;-77
2022/12/05 12:23:19;;;;;;;15.48;9.82;;;;;;;6.27;78.31;100077.13;1085306;54;20065;-76
2022/12/05 12:24:35;;;;;;;15.88;10.65;;;;;;;6.27;79.00;100077.97;1086887;54;20061;-76
2022/12/05 12:25:48;;;;;;;15.73;10.85;;;;;;;6.33;79.06;100082.78;1086812;39;20511;-76
2022/12/05 12:27:05;;;;;;;15.80;10.68;;;;;;;6.34;78.91;100084.50;1085832;39;20294;-77
2022/12/05 12:28:23;;;;;;;18.48;12.93;;;;;;;6.13;79.14;100086.13;1085471;54;20042;-77
2022/12/05 12:29:44;;;;;;;19.88;12.82;;;;;;;6.04;79.78;100090.31;1085574;54;20094;-76
2022/12/05 12:31:00;;;;;;;20.17;13.52;;;;;;;6.05;79.80;100089.34;1086390;54;20565;-76